sensor_id;sensor_type;location;lat;lon;timestamp;P1;durP1;ratioP1;P2;durP2;ratioP2
17504;SDS011;8870;50.950;11.762;2022-08-01T00:00:15;1.45;;;0.90;;
17504;SDS011;8870;50.950;11.762;2022-08-01T00:05:22;3.42;;;1.00;;
17504;SDS011;8870;50.950;11.762;2022-08-01T00:10:28;2.15;;;0.90;;
17504;SDS011;8870;50.950;11.762;2022-08-01T00:15:36;1.65;;;1.00;;
17504;SDS011;8870;50.950;11.762;2022-08-01T00:20:57;2.53;;;0.88;;
17504;SDS011;8870;50.950;11.762;2022-08-01T00:26:02;3.28;;;1.10;;
17504;SDS011;8870;50.950;11.762;2022-08-01T00:31:07;1.80;;;0.95;;
17504;SDS011;8870;50.950;11.762;2022-08-01T00:36:14;1.48;;;1.00;;
17504;SDS011;8870;50.950;11.762;2022-08-01T00:41:19;1.52;;;0.93;;
17504;SDS011;8870;50.950;11.762;2022-08-01T00:46:24;2.40;;;1.23;;
17504;SDS011;8870;50.950;11.762;2022-08-01T00:51:32;1.60;;;1.10;;
17504;SDS011;8870;50.950;11.762;2022-08-01T00:56:37;1.75;;;1.25;;
17504;SDS011;8870;50.950;11.762;2022-08-01T01:01:42;2.00;;;0.90;;
17504;SDS011;8870;50.950;11.762;2022-08-01T01:06:55;1.33;;;1.00;;
17504;SDS011;8870;50.950;11.762;2022-08-01T01:12:12;2.85;;;0.82;;
17504;SDS011;8870;50.950;11.762;2022-08-01T01:17:28;2.53;;;1.02;;
17504;SDS011;8870;50.950;11.762;2022-08-01T01:22:58;1.80;;;1.13;;
17504;SDS011;8870;50.950;11.762;2022-08-01T01:28:15;1.27;;;0.90;;
17504;SDS011;8870;50.950;11.762;2022-08-01T01:33:30;1.00;;;0.90;;
17504;SDS011;8870;50.950;11.762;2022-08-01T01:38:47;0.80;;;0.80;;
17504;SDS011;8870;50.950;11.762;2022-08-01T01:43:55;3.40;;;1.02;;
17504;SDS011;8870;50.950;11.762;2022-08-01T01:49:04;3.95;;;1.00;;
17504;SDS011;8870;50.950;11.762;2022-08-01T01:54:11;1.10;;;1.00;;
17504;SDS011;8870;50.950;11.762;2022-08-01T01:59:18;3.42;;;0.80;;
17504;SDS011;8870;50.950;11.762;2022-08-01T02:04:29;1.13;;;0.90;;
17504;SDS011;8870;50.950;11.762;2022-08-01T02:09:35;1.48;;;0.80;;
17504;SDS011;8870;50.950;11.762;2022-08-01T02:14:42;2.83;;;0.95;;
17504;SDS011;8870;50.950;11.762;2022-08-01T02:19:51;1.25;;;0.90;;
17504;SDS011;8870;50.950;11.762;2022-08-01T02:24:59;1.83;;;1.00;;
17504;SDS011;8870;50.950;11.762;2022-08-01T02:30:08;1.52;;;0.90;;
17504;SDS011;8870;50.950;11.762;2022-08-01T02:41:17;1.73;;;0.73;;
17504;SDS011;8870;50.950;11.762;2022-08-01T02:46:27;0.85;;;0.70;;
17504;SDS011;8870;50.950;11.762;2022-08-01T02:51:38;0.70;;;0.60;;
17504;SDS011;8870;50.950;11.762;2022-08-01T02:56:47;1.00;;;0.80;;
17504;SDS011;8870;50.950;11.762;2022-08-01T03:01:55;1.27;;;0.60;;
17504;SDS011;8870;50.950;11.762;2022-08-01T03:07:04;1.88;;;0.75;;
17504;SDS011;8870;50.950;11.762;2022-08-01T03:12:15;0.93;;;0.50;;
17504;SDS011;8870;50.950;11.762;2022-08-01T03:17:22;1.70;;;0.65;;
17504;SDS011;8870;50.950;11.762;2022-08-01T03:22:29;0.75;;;0.60;;
17504;SDS011;8870;50.950;11.762;2022-08-01T03:27:40;0.60;;;0.60;;
17504;SDS011;8870;50.950;11.762;2022-08-01T03:32:47;2.38;;;0.65;;
17504;SDS011;8870;50.950;11.762;2022-08-01T03:37:52;0.55;;;0.47;;
17504;SDS011;8870;50.950;11.762;2022-08-01T03:43:20;0.95;;;0.43;;
17504;SDS011;8870;50.950;11.762;2022-08-01T03:48:31;0.40;;;0.40;;
17504;SDS011;8870;50.950;11.762;2022-08-01T03:53:40;1.77;;;0.40;;
17504;SDS011;8870;50.950;11.762;2022-08-01T03:58:49;0.47;;;0.47;;
17504;SDS011;8870;50.950;11.762;2022-08-01T04:03:55;0.52;;;0.52;;
17504;SDS011;8870;50.950;11.762;2022-08-01T04:09:03;0.60;;;0.60;;
17504;SDS011;8870;50.950;11.762;2022-08-01T04:14:16;1.08;;;0.60;;
17504;SDS011;8870;50.950;11.762;2022-08-01T04:19:21;0.77;;;0.60;;
17504;SDS011;8870;50.950;11.762;2022-08-01T04:24:27;0.50;;;0.50;;
17504;SDS011;8870;50.950;11.762;2022-08-01T04:29:37;0.75;;;0.50;;
17504;SDS011;8870;50.950;11.762;2022-08-01T04:34:43;1.48;;;0.63;;
17504;SDS011;8870;50.950;11.762;2022-08-01T04:39:50;0.60;;;0.50;;
17504;SDS011;8870;50.950;11.762;2022-08-01T04:44:59;1.42;;;0.60;;
17504;SDS011;8870;50.950;11.762;2022-08-01T04:50:06;0.50;;;0.50;;
17504;SDS011;8870;50.950;11.762;2022-08-01T04:55:12;2.10;;;0.50;;
17504;SDS011;8870;50.950;11.762;2022-08-01T05:00:21;0.50;;;0.50;;
17504;SDS011;8870;50.950;11.762;2022-08-01T05:05:26;0.88;;;0.70;;
17504;SDS011;8870;50.950;11.762;2022-08-01T05:10:32;1.23;;;0.55;;
17504;SDS011;8870;50.950;11.762;2022-08-01T05:15:39;1.42;;;0.60;;
17504;SDS011;8870;50.950;11.762;2022-08-01T05:20:44;0.60;;;0.60;;
17504;SDS011;8870;50.950;11.762;2022-08-01T05:25:49;0.68;;;0.60;;
17504;SDS011;8870;50.950;11.762;2022-08-01T05:31:01;0.95;;;0.60;;
17504;SDS011;8870;50.950;11.762;2022-08-01T05:36:06;0.80;;;0.70;;
17504;SDS011;8870;50.950;11.762;2022-08-01T05:41:11;0.70;;;0.70;;
17504;SDS011;8870;50.950;11.762;2022-08-01T05:46:20;1.33;;;0.70;;
17504;SDS011;8870;50.950;11.762;2022-08-01T05:51:28;1.00;;;0.70;;
17504;SDS011;8870;50.950;11.762;2022-08-01T05:56:33;1.75;;;0.65;;
17504;SDS011;8870;50.950;11.762;2022-08-01T06:01:43;1.42;;;0.63;;
17504;SDS011;8870;50.950;11.762;2022-08-01T06:06:48;1.20;;;0.55;;
17504;SDS011;8870;50.950;11.762;2022-08-01T06:11:56;1.17;;;0.60;;
17504;SDS011;8870;50.950;11.762;2022-08-01T06:17:04;0.77;;;0.60;;
17504;SDS011;8870;50.950;11.762;2022-08-01T06:22:09;1.60;;;0.68;;
17504;SDS011;8870;50.950;11.762;2022-08-01T06:37:57;0.73;;;0.60;;
17504;SDS011;8870;50.950;11.762;2022-08-01T06:43:02;1.38;;;0.60;;
17504;SDS011;8870;50.950;11.762;2022-08-01T06:48:10;0.73;;;0.50;;
17504;SDS011;8870;50.950;11.762;2022-08-01T06:53:14;1.85;;;1.00;;
17504;SDS011;8870;50.950;11.762;2022-08-01T06:58:20;1.92;;;0.88;;
17504;SDS011;8870;50.950;11.762;2022-08-01T07:03:35;1.90;;;0.70;;
17504;SDS011;8870;50.950;11.762;2022-08-01T07:08:55;1.88;;;0.50;;
17504;SDS011;8870;50.950;11.762;2022-08-01T07:14:08;0.75;;;0.40;;
17504;SDS011;8870;50.950;11.762;2022-08-01T07:19:16;1.35;;;0.40;;
17504;SDS011;8870;50.950;11.762;2022-08-01T07:24:22;0.40;;;0.40;;
17504;SDS011;8870;50.950;11.762;2022-08-01T07:29:36;0.38;;;0.38;;
17504;SDS011;8870;50.950;11.762;2022-08-01T07:34:43;0.73;;;0.40;;
17504;SDS011;8870;50.950;11.762;2022-08-01T07:39:48;0.85;;;0.40;;
17504;SDS011;8870;50.950;11.762;2022-08-01T07:44:53;0.65;;;0.50;;
17504;SDS011;8870;50.950;11.762;2022-08-01T07:50:05;0.68;;;0.50;;
17504;SDS011;8870;50.950;11.762;2022-08-01T07:55:14;0.95;;;0.50;;
17504;SDS011;8870;50.950;11.762;2022-08-01T08:00:21;0.52;;;0.35;;
17504;SDS011;8870;50.950;11.762;2022-08-01T08:05:28;0.32;;;0.30;;
17504;SDS011;8870;50.950;11.762;2022-08-01T08:10:54;0.45;;;0.40;;
17504;SDS011;8870;50.950;11.762;2022-08-01T08:15:59;0.90;;;0.40;;
17504;SDS011;8870;50.950;11.762;2022-08-01T08:21:06;0.45;;;0.40;;
17504;SDS011;8870;50.950;11.762;2022-08-01T08:26:12;0.75;;;0.40;;
17504;SDS011;8870;50.950;11.762;2022-08-01T08:31:17;2.10;;;0.30;;
17504;SDS011;8870;50.950;11.762;2022-08-01T08:36:44;0.55;;;0.30;;
17504;SDS011;8870;50.950;11.762;2022-08-01T08:41:50;1.35;;;0.38;;
17504;SDS011;8870;50.950;11.762;2022-08-01T08:46:55;0.30;;;0.30;;
17504;SDS011;8870;50.950;11.762;2022-08-01T08:52:12;0.50;;;0.30;;
17504;SDS011;8870;50.950;11.762;2022-08-01T08:57:19;2.72;;;0.30;;
17504;SDS011;8870;50.950;11.762;2022-08-01T09:02:24;0.38;;;0.30;;
17504;SDS011;8870;50.950;11.762;2022-08-01T09:07:32;1.55;;;0.47;;
17504;SDS011;8870;50.950;11.762;2022-08-01T09:12:37;1.88;;;0.20;;
17504;SDS011;8870;50.950;11.762;2022-08-01T09:17:43;0.20;;;0.20;;
17504;SDS011;8870;50.950;11.762;2022-08-01T09:22:50;0.45;;;0.17;;
17504;SDS011;8870;50.950;11.762;2022-08-01T09:28:01;0.45;;;0.13;;
17504;SDS011;8870;50.950;11.762;2022-08-01T09:33:08;0.45;;;0.20;;
17504;SDS011;8870;50.950;11.762;2022-08-01T09:38:25;0.20;;;0.20;;
17504;SDS011;8870;50.950;11.762;2022-08-01T09:43:31;0.40;;;0.20;;
17504;SDS011;8870;50.950;11.762;2022-08-01T09:48:38;0.80;;;0.20;;
17504;SDS011;8870;50.950;11.762;2022-08-01T09:53:52;0.13;;;0.10;;
17504;SDS011;8870;50.950;11.762;2022-08-01T09:58:57;0.80;;;0.10;;
17504;SDS011;8870;50.950;11.762;2022-08-01T10:04:07;3.03;;;0.10;;
17504;SDS011;8870;50.950;11.762;2022-08-01T10:09:26;0.55;;;0.10;;
17504;SDS011;8870;50.950;11.762;2022-08-01T10:14:41;0.30;;;0.10;;
17504;SDS011;8870;50.950;11.762;2022-08-01T10:19:51;0.10;;;0.10;;
17504;SDS011;8870;50.950;11.762;2022-08-01T10:25:03;0.10;;;0.10;;
17504;SDS011;8870;50.950;11.762;2022-08-01T10:30:10;0.10;;;0.10;;
17504;SDS011;8870;50.950;11.762;2022-08-01T10:35:24;0.25;;;0.10;;
17504;SDS011;8870;50.950;11.762;2022-08-01T10:40:50;0.32;;;0.10;;
17504;SDS011;8870;50.950;11.762;2022-08-01T10:45:56;0.10;;;0.10;;
17504;SDS011;8870;50.950;11.762;2022-08-01T10:51:03;0.68;;;0.10;;
17504;SDS011;8870;50.950;11.762;2022-08-01T10:56:22;0.17;;;0.10;;
17504;SDS011;8870;50.950;11.762;2022-08-01T11:01:31;0.10;;;0.10;;
17504;SDS011;8870;50.950;11.762;2022-08-01T11:06:43;0.20;;;0.10;;
17504;SDS011;8870;50.950;11.762;2022-08-01T11:12:00;0.50;;;0.15;;
17504;SDS011;8870;50.950;11.762;2022-08-01T11:28:25;0.10;;;0.10;;
17504;SDS011;8870;50.950;11.762;2022-08-01T11:33:49;0.15;;;0.00;;
17504;SDS011;8870;50.950;11.762;2022-08-01T11:49:45;0.00;;;0.00;;
17504;SDS011;8870;50.950;11.762;2022-08-01T11:54:57;0.00;;;0.00;;
17504;SDS011;8870;50.950;11.762;2022-08-01T12:00:15;0.17;;;0.10;;
17504;SDS011;8870;50.950;11.762;2022-08-01T12:05:21;0.20;;;0.10;;
17504;SDS011;8870;50.950;11.762;2022-08-01T12:10:28;0.20;;;0.10;;
17504;SDS011;8870;50.950;11.762;2022-08-01T12:15:53;0.30;;;0.10;;
17504;SDS011;8870;50.950;11.762;2022-08-01T12:21:02;0.80;;;0.20;;
17504;SDS011;8870;50.950;11.762;2022-08-01T12:26:08;1.45;;;0.10;;
17504;SDS011;8870;50.950;11.762;2022-08-01T12:31:35;0.03;;;0.00;;
17504;SDS011;8870;50.950;11.762;2022-08-01T12:36:40;0.55;;;0.10;;
17504;SDS011;8870;50.950;11.762;2022-08-01T12:41:46;1.77;;;0.15;;
17504;SDS011;8870;50.950;11.762;2022-08-01T12:46:53;0.68;;;0.05;;
17504;SDS011;8870;50.950;11.762;2022-08-01T12:51:58;0.20;;;0.10;;
17504;SDS011;8870;50.950;11.762;2022-08-01T12:57:04;0.03;;;0.00;;
17504;SDS011;8870;50.950;11.762;2022-08-01T13:02:34;0.52;;;0.20;;
17504;SDS011;8870;50.950;11.762;2022-08-01T13:07:43;0.10;;;0.10;;
17504;SDS011;8870;50.950;11.762;2022-08-01T13:12:51;0.68;;;0.20;;
17504;SDS011;8870;50.950;11.762;2022-08-01T13:18:00;2.35;;;0.10;;
17504;SDS011;8870;50.950;11.762;2022-08-01T13:23:25;0.30;;;0.00;;
17504;SDS011;8870;50.950;11.762;2022-08-01T13:29:03;1.40;;;0.20;;
17504;SDS011;8870;50.950;11.762;2022-08-01T13:34:12;0.20;;;0.10;;
17504;SDS011;8870;50.950;11.762;2022-08-01T13:39:18;0.00;;;0.00;;
17504;SDS011;8870;50.950;11.762;2022-08-01T13:44:35;0.10;;;0.10;;
17504;SDS011;8870;50.950;11.762;2022-08-01T13:49:43;0.32;;;0.00;;
17504;SDS011;8870;50.950;11.762;2022-08-01T13:54:48;1.33;;;0.10;;
17504;SDS011;8870;50.950;11.762;2022-08-01T13:59:53;0.20;;;0.10;;
17504;SDS011;8870;50.950;11.762;2022-08-01T14:05:04;0.47;;;0.00;;
17504;SDS011;8870;50.950;11.762;2022-08-01T14:10:10;0.10;;;0.10;;
17504;SDS011;8870;50.950;11.762;2022-08-01T14:20:41;0.10;;;0.10;;
17504;SDS011;8870;50.950;11.762;2022-08-01T14:31:07;0.10;;;0.00;;
17504;SDS011;8870;50.950;11.762;2022-08-01T14:36:14;0.25;;;0.10;;
17504;SDS011;8870;50.950;11.762;2022-08-01T14:41:31;0.10;;;0.00;;
17504;SDS011;8870;50.950;11.762;2022-08-01T14:46:37;0.15;;;0.10;;
17504;SDS011;8870;50.950;11.762;2022-08-01T14:52:02;0.10;;;0.10;;
17504;SDS011;8870;50.950;11.762;2022-08-01T14:57:08;4.15;;;0.22;;
17504;SDS011;8870;50.950;11.762;2022-08-01T15:02:14;3.00;;;0.20;;
17504;SDS011;8870;50.950;11.762;2022-08-01T15:07:22;0.32;;;0.10;;
17504;SDS011;8870;50.950;11.762;2022-08-01T15:12:28;0.10;;;0.05;;
17504;SDS011;8870;50.950;11.762;2022-08-01T15:17:51;0.20;;;0.10;;
17504;SDS011;8870;50.950;11.762;2022-08-01T15:23:00;0.17;;;0.10;;
17504;SDS011;8870;50.950;11.762;2022-08-01T15:28:09;0.00;;;0.00;;
17504;SDS011;8870;50.950;11.762;2022-08-01T15:33:14;0.08;;;0.08;;
17504;SDS011;8870;50.950;11.762;2022-08-01T15:38:22;2.40;;;0.10;;
17504;SDS011;8870;50.950;11.762;2022-08-01T15:43:27;0.00;;;0.00;;
17504;SDS011;8870;50.950;11.762;2022-08-01T15:48:33;2.30;;;0.10;;
17504;SDS011;8870;50.950;11.762;2022-08-01T15:53:43;0.95;;;0.10;;
17504;SDS011;8870;50.950;11.762;2022-08-01T15:58:50;1.10;;;0.10;;
17504;SDS011;8870;50.950;11.762;2022-08-01T16:03:56;1.55;;;0.10;;
17504;SDS011;8870;50.950;11.762;2022-08-01T16:09:05;0.50;;;0.08;;
17504;SDS011;8870;50.950;11.762;2022-08-01T16:14:19;0.57;;;0.10;;
17504;SDS011;8870;50.950;11.762;2022-08-01T16:19:25;1.17;;;0.10;;
17504;SDS011;8870;50.950;11.762;2022-08-01T16:24:32;1.30;;;0.20;;
17504;SDS011;8870;50.950;11.762;2022-08-01T16:29:38;1.80;;;0.20;;
17504;SDS011;8870;50.950;11.762;2022-08-01T16:34:42;0.10;;;0.10;;
17504;SDS011;8870;50.950;11.762;2022-08-01T16:39:50;0.32;;;0.10;;
17504;SDS011;8870;50.950;11.762;2022-08-01T16:44:56;0.85;;;0.22;;
17504;SDS011;8870;50.950;11.762;2022-08-01T16:50:13;3.60;;;0.25;;
17504;SDS011;8870;50.950;11.762;2022-08-01T16:55:31;2.03;;;0.10;;
17504;SDS011;8870;50.950;11.762;2022-08-01T17:00:51;1.38;;;0.10;;
17504;SDS011;8870;50.950;11.762;2022-08-01T17:05:57;0.55;;;0.10;;
17504;SDS011;8870;50.950;11.762;2022-08-01T17:11:05;0.45;;;0.10;;
17504;SDS011;8870;50.950;11.762;2022-08-01T17:16:10;0.32;;;0.10;;
17504;SDS011;8870;50.950;11.762;2022-08-01T17:21:15;2.28;;;0.25;;
17504;SDS011;8870;50.950;11.762;2022-08-01T17:26:22;2.20;;;0.20;;
17504;SDS011;8870;50.950;11.762;2022-08-01T17:31:27;0.75;;;0.22;;
17504;SDS011;8870;50.950;11.762;2022-08-01T17:36:32;2.08;;;0.10;;
17504;SDS011;8870;50.950;11.762;2022-08-01T17:41:40;0.82;;;0.15;;
17504;SDS011;8870;50.950;11.762;2022-08-01T17:46:45;1.40;;;0.20;;
17504;SDS011;8870;50.950;11.762;2022-08-01T17:51:50;0.20;;;0.20;;
17504;SDS011;8870;50.950;11.762;2022-08-01T17:56:58;0.40;;;0.10;;
17504;SDS011;8870;50.950;11.762;2022-08-01T18:02:08;2.28;;;0.30;;
17504;SDS011;8870;50.950;11.762;2022-08-01T18:07:13;0.50;;;0.20;;
17504;SDS011;8870;50.950;11.762;2022-08-01T18:12:21;2.13;;;0.30;;
17504;SDS011;8870;50.950;11.762;2022-08-01T18:17:26;0.77;;;0.25;;
17504;SDS011;8870;50.950;11.762;2022-08-01T18:22:31;1.05;;;0.20;;
17504;SDS011;8870;50.950;11.762;2022-08-01T18:27:39;0.20;;;0.20;;
17504;SDS011;8870;50.950;11.762;2022-08-01T18:33:04;2.50;;;0.20;;
17504;SDS011;8870;50.950;11.762;2022-08-01T18:38:09;3.72;;;0.30;;
17504;SDS011;8870;50.950;11.762;2022-08-01T18:43:17;1.63;;;0.25;;
17504;SDS011;8870;50.950;11.762;2022-08-01T18:48:22;2.17;;;0.20;;
17504;SDS011;8870;50.950;11.762;2022-08-01T18:53:33;1.02;;;0.25;;
17504;SDS011;8870;50.950;11.762;2022-08-01T18:58:45;0.52;;;0.30;;
17504;SDS011;8870;50.950;11.762;2022-08-01T19:03:50;0.95;;;0.30;;
17504;SDS011;8870;50.950;11.762;2022-08-01T19:08:56;0.60;;;0.28;;
17504;SDS011;8870;50.950;11.762;2022-08-01T19:14:12;0.80;;;0.30;;
17504;SDS011;8870;50.950;11.762;2022-08-01T19:19:18;0.95;;;0.30;;
17504;SDS011;8870;50.950;11.762;2022-08-01T19:24:29;2.33;;;0.38;;
17504;SDS011;8870;50.950;11.762;2022-08-01T19:29:37;2.08;;;0.32;;
17504;SDS011;8870;50.950;11.762;2022-08-01T19:34:46;2.15;;;0.50;;
17504;SDS011;8870;50.950;11.762;2022-08-01T19:39:59;1.73;;;0.60;;
17504;SDS011;8870;50.950;11.762;2022-08-01T19:45:09;0.85;;;0.50;;
17504;SDS011;8870;50.950;11.762;2022-08-01T19:50:15;5.55;;;0.55;;
17504;SDS011;8870;50.950;11.762;2022-08-01T19:55:20;3.67;;;0.68;;
17504;SDS011;8870;50.950;11.762;2022-08-01T20:00:43;2.10;;;0.50;;
17504;SDS011;8870;50.950;11.762;2022-08-01T20:05:50;3.35;;;0.60;;
17504;SDS011;8870;50.950;11.762;2022-08-01T20:10:55;1.90;;;0.60;;
17504;SDS011;8870;50.950;11.762;2022-08-01T20:16:18;1.33;;;0.60;;
17504;SDS011;8870;50.950;11.762;2022-08-01T20:21:34;1.50;;;0.73;;
17504;SDS011;8870;50.950;11.762;2022-08-01T20:26:40;2.00;;;0.60;;
17504;SDS011;8870;50.950;11.762;2022-08-01T20:31:50;1.95;;;0.43;;
17504;SDS011;8870;50.950;11.762;2022-08-01T20:36:57;1.27;;;0.63;;
17504;SDS011;8870;50.950;11.762;2022-08-01T20:42:07;1.65;;;0.60;;
17504;SDS011;8870;50.950;11.762;2022-08-01T20:47:16;1.52;;;0.50;;
17504;SDS011;8870;50.950;11.762;2022-08-01T20:52:22;0.95;;;0.50;;
17504;SDS011;8870;50.950;11.762;2022-08-01T20:57:31;1.30;;;0.50;;
17504;SDS011;8870;50.950;11.762;2022-08-01T21:02:43;2.53;;;0.50;;
17504;SDS011;8870;50.950;11.762;2022-08-01T21:07:52;3.80;;;0.60;;
17504;SDS011;8870;50.950;11.762;2022-08-01T21:13:06;0.50;;;0.50;;
17504;SDS011;8870;50.950;11.762;2022-08-01T21:18:24;1.80;;;0.50;;
17504;SDS011;8870;50.950;11.762;2022-08-01T21:23:38;1.25;;;0.50;;
17504;SDS011;8870;50.950;11.762;2022-08-01T21:28:51;0.82;;;0.60;;
17504;SDS011;8870;50.950;11.762;2022-08-01T21:34:05;1.17;;;0.50;;
17504;SDS011;8870;50.950;11.762;2022-08-01T21:39:10;3.08;;;0.70;;
17504;SDS011;8870;50.950;11.762;2022-08-01T21:44:16;0.65;;;0.50;;
17504;SDS011;8870;50.950;11.762;2022-08-01T21:49:31;1.02;;;0.70;;
17504;SDS011;8870;50.950;11.762;2022-08-01T21:54:38;1.33;;;0.57;;
17504;SDS011;8870;50.950;11.762;2022-08-01T21:59:55;3.20;;;0.70;;
17504;SDS011;8870;50.950;11.762;2022-08-01T22:05:10;0.45;;;0.45;;
17504;SDS011;8870;50.950;11.762;2022-08-01T22:10:18;1.02;;;0.50;;
17504;SDS011;8870;50.950;11.762;2022-08-01T22:15:24;1.80;;;0.50;;
17504;SDS011;8870;50.950;11.762;2022-08-01T22:20:48;1.08;;;0.60;;
17504;SDS011;8870;50.950;11.762;2022-08-01T22:25:55;0.57;;;0.50;;
17504;SDS011;8870;50.950;11.762;2022-08-01T22:31:00;3.53;;;0.70;;
17504;SDS011;8870;50.950;11.762;2022-08-01T22:36:09;0.70;;;0.57;;
17504;SDS011;8870;50.950;11.762;2022-08-01T22:41:17;1.40;;;0.60;;
17504;SDS011;8870;50.950;11.762;2022-08-01T22:46:25;1.42;;;0.65;;
17504;SDS011;8870;50.950;11.762;2022-08-01T22:51:41;1.38;;;0.60;;
17504;SDS011;8870;50.950;11.762;2022-08-01T22:56:56;1.65;;;0.50;;
17504;SDS011;8870;50.950;11.762;2022-08-01T23:02:08;1.25;;;0.68;;
17504;SDS011;8870;50.950;11.762;2022-08-01T23:07:21;1.13;;;0.80;;
17504;SDS011;8870;50.950;11.762;2022-08-01T23:12:32;0.70;;;0.60;;
17504;SDS011;8870;50.950;11.762;2022-08-01T23:17:37;0.98;;;0.60;;
17504;SDS011;8870;50.950;11.762;2022-08-01T23:22:48;2.35;;;0.73;;
17504;SDS011;8870;50.950;11.762;2022-08-01T23:27:55;1.65;;;0.80;;
17504;SDS011;8870;50.950;11.762;2022-08-01T23:33:06;2.75;;;0.70;;
17504;SDS011;8870;50.950;11.762;2022-08-01T23:38:18;0.68;;;0.50;;
17504;SDS011;8870;50.950;11.762;2022-08-01T23:43:23;0.68;;;0.50;;
17504;SDS011;8870;50.950;11.762;2022-08-01T23:48:28;0.77;;;0.60;;
17504;SDS011;8870;50.950;11.762;2022-08-01T23:53:36;2.30;;;0.77;;
17504;SDS011;8870;50.950;11.762;2022-08-01T23:58:44;1.40;;;0.60;;
